Time;durP1;ratioP1;P1;durP2;ratioP2;P2;SDS_P1;SDS_P2;PMS_P1;PMS_P2;Temp;Humidity;BMP_temperature;BMP_pressure;BME280_temperature;BME280_humidity;BME280_pressure;Samples;Min_cycle;Max_cycle;Signal;HPM_P1;HPM_P2
2021/11/23 00:00:18;;;;;;;1.50;1.40;;;7.20;99.90;;;;;;4998947;28;20041;-85
2021/11/23 00:02:44;;;;;;;2.25;1.33;;;7.20;99.90;;;;;;5039189;28;20053;-83
2021/11/23 00:05:11;;;;;;;1.67;1.23;;;7.30;99.90;;;;;;5038098;28;20064;-82
2021/11/23 00:07:38;;;;;;;3.33;1.58;;;7.30;99.90;;;;;;5031483;28;20052;-85
2021/11/23 00:10:05;;;;;;;2.47;1.40;;;7.30;99.90;;;;;;5055644;28;20457;-84
2021/11/23 00:12:31;;;;;;;2.55;1.55;;;7.40;99.90;;;;;;5057823;28;20041;-83
2021/11/23 00:14:57;;;;;;;;;;;7.40;99.90;;;;;;5061944;28;20151;-84
2021/11/23 00:17:23;;;;;;;1.13;1.00;;;7.40;99.90;;;;;;5014576;28;20003;-84
2021/11/23 00:19:49;;;;;;;;;;;7.40;99.90;;;;;;5081686;28;20043;-83
2021/11/23 00:22:14;;;;;;;3.65;1.10;;;7.40;99.90;;;;;;5076874;28;20426;-83
2021/11/23 00:24:40;;;;;;;2.28;1.50;;;7.50;99.90;;;;;;5077074;28;20044;-83
2021/11/23 00:27:06;;;;;;;1.25;1.15;;;7.40;99.90;;;;;;5060273;28;20032;-83
2021/11/23 00:29:32;;;;;;;2.75;1.63;;;7.60;99.90;;;;;;5077241;28;20165;-83
2021/11/23 00:31:58;;;;;;;1.75;1.42;;;7.50;99.90;;;;;;5084195;28;20068;-83
2021/11/23 00:34:24;;;;;;;1.23;1.13;;;7.50;99.90;;;;;;5068914;28;20103;-83
2021/11/23 00:36:50;;;;;;;3.33;1.52;;;7.50;99.90;;;;;;5076529;28;20074;-84
2021/11/23 00:39:16;;;;;;;3.80;1.88;;;7.50;99.90;;;;;;5074376;28;20078;-84
2021/11/23 00:41:47;;;;;;;9.15;1.70;;;7.60;99.90;;;;;;5049411;28;20055;-83
2021/11/23 00:44:18;;;;;;;1.17;1.08;;;7.50;99.90;;;;;;5080496;28;20055;-85
2021/11/23 00:46:44;;;;;;;2.63;1.55;;;7.50;99.90;;;;;;5075696;28;20048;-83
2021/11/23 00:49:14;;;;;;;5.93;1.38;;;7.60;99.90;;;;;;5070936;28;20049;-83
2021/11/23 00:51:40;;;;;;;5.22;1.30;;;7.60;99.90;;;;;;5072458;28;20043;-83
2021/11/23 00:54:06;;;;;;;1.38;0.98;;;7.60;99.90;;;;;;5061511;28;20137;-83
2021/11/23 00:56:32;;;;;;;1.67;1.20;;;7.60;99.90;;;;;;5089217;28;20075;-84
2021/11/23 00:58:58;;;;;;;3.90;2.15;;;7.60;99.90;;;;;;5077450;28;20050;-83
2021/11/23 01:01:24;;;;;;;1.35;1.00;;;7.70;99.90;;;;;;5082639;28;20043;-83
2021/11/23 01:03:50;;;;;;;0.82;0.82;;;7.70;99.90;;;;;;5060798;28;20110;-84
2021/11/23 01:06:16;;;;;;;0.88;0.85;;;7.70;99.90;;;;;;5073196;28;20485;-84
2021/11/23 01:08:42;;;;;;;1.50;1.35;;;7.70;99.90;;;;;;5072827;28;20037;-83
2021/11/23 01:11:10;;;;;;;0.77;0.77;;;7.80;99.90;;;;;;5080705;28;20040;-83
2021/11/23 01:13:37;;;;;;;1.58;1.48;;;7.70;99.90;;;;;;5075203;28;20123;-84
2021/11/23 01:16:03;;;;;;;8.40;1.55;;;7.70;99.90;;;;;;5072148;28;20485;-83
2021/11/23 01:18:32;;;;;;;0.90;0.90;;;7.80;99.90;;;;;;5073232;28;20055;-83
2021/11/23 01:20:58;;;;;;;1.50;1.13;;;7.80;99.90;;;;;;5039370;28;20045;-81
2021/11/23 01:23:24;;;;;;;1.10;1.00;;;8.20;99.90;;;;;;5084972;28;20036;-81
2021/11/23 01:25:50;;;;;;;;;;;7.80;99.90;;;;;;5074600;28;20055;-83
2021/11/23 01:28:15;;;;;;;2.30;1.42;;;7.90;99.90;;;;;;5063184;28;19920;-82
2021/11/23 01:30:43;;;;;;;1.08;1.02;;;8.00;99.90;;;;;;5069132;28;20132;-83
2021/11/23 01:33:08;;;;;;;10.40;1.13;;;7.90;99.90;;;;;;5053364;28;20052;-82
2021/11/23 01:35:34;;;;;;;0.90;0.90;;;7.90;99.90;;;;;;5071812;28;20047;-82
2021/11/23 01:38:00;;;;;;;1.40;1.30;;;7.90;99.90;;;;;;5066329;28;20049;-82
2021/11/23 01:40:26;;;;;;;0.90;0.90;;;7.90;99.90;;;;;;5056144;28;20040;-82
2021/11/23 01:42:51;;;;;;;1.17;0.70;;;7.90;99.90;;;;;;5055767;28;20049;-82
2021/11/23 01:45:17;;;;;;;1.25;1.10;;;7.90;99.90;;;;;;5084374;28;20047;-83
2021/11/23 01:47:43;;;;;;;0.60;0.60;;;8.00;99.90;;;;;;5067545;28;20048;-81
2021/11/23 01:50:11;;;;;;;2.30;1.95;;;8.40;99.90;;;;;;5036273;28;20095;-82
2021/11/23 01:52:37;;;;;;;2.35;1.38;;;8.20;99.90;;;;;;5081248;28;20040;-82
2021/11/23 01:55:06;;;;;;;3.10;1.90;;;8.00;99.90;;;;;;5080271;28;20089;-81
2021/11/23 01:57:33;;;;;;;5.88;1.08;;;8.00;99.90;;;;;;5073802;28;20093;-81
2021/11/23 01:59:59;;;;;;;1.80;1.45;;;8.10;99.90;;;;;;5073891;28;20044;-82
2021/11/23 02:02:25;;;;;;;0.80;0.80;;;8.10;99.90;;;;;;5074718;28;20132;-82
2021/11/23 02:04:51;;;;;;;1.70;1.00;;;8.10;99.90;;;;;;5070146;28;20497;-84
2021/11/23 02:07:18;;;;;;;2.38;1.23;;;8.10;99.90;;;;;;5049544;28;20048;-84
2021/11/23 02:09:45;;;;;;;3.83;1.20;;;8.20;99.90;;;;;;5073234;28;20040;-83
2021/11/23 02:12:10;;;;;;;6.45;3.38;;;8.20;99.90;;;;;;5072362;28;20036;-84
2021/11/23 02:14:37;;;;;;;1.00;0.95;;;8.20;99.90;;;;;;5082760;28;20511;-83
2021/11/23 02:17:03;;;;;;;1.52;1.42;;;8.20;99.90;;;;;;5079082;28;20113;-84
2021/11/23 02:19:28;;;;;;;0.60;0.60;;;8.20;99.90;;;;;;5071938;28;20036;-84
2021/11/23 02:21:54;;;;;;;1.60;1.50;;;8.20;99.90;;;;;;5052305;28;20041;-83
2021/11/23 02:24:20;;;;;;;1.05;0.80;;;8.30;99.90;;;;;;5081562;28;20044;-82
2021/11/23 02:26:45;;;;;;;0.90;0.90;;;8.20;99.90;;;;;;5073022;28;20060;-82
2021/11/23 02:29:11;;;;;;;1.13;0.80;;;8.20;99.90;;;;;;5056715;28;20545;-82
2021/11/23 02:31:37;;;;;;;10.60;2.13;;;8.20;99.90;;;;;;5070503;28;20040;-82
2021/11/23 02:34:03;;;;;;;9.85;1.02;;;8.20;99.90;;;;;;5081669;28;20071;-83
2021/11/23 02:36:28;;;;;;;0.50;0.50;;;8.10;99.90;;;;;;5078163;28;20036;-83
2021/11/23 02:38:54;;;;;;;0.95;0.95;;;8.10;99.90;;;;;;5077701;28;20040;-82
2021/11/23 02:41:20;;;;;;;0.50;0.50;;;8.10;99.90;;;;;;5069455;28;20040;-82
2021/11/23 02:43:47;;;;;;;0.93;0.93;;;8.10;99.90;;;;;;5054074;28;20124;-83
2021/11/23 02:46:14;;;;;;;0.90;0.90;;;8.10;99.90;;;;;;5083755;28;20122;-82
2021/11/23 02:48:40;;;;;;;1.15;1.15;;;8.10;99.90;;;;;;5070345;28;20492;-82
2021/11/23 02:51:11;;;;;;;3.25;0.88;;;8.10;99.90;;;;;;5073102;28;20037;-83
2021/11/23 02:53:36;;;;;;;0.82;0.82;;;8.10;99.90;;;;;;5079752;28;20394;-83
2021/11/23 02:56:04;;;;;;;0.85;0.85;;;8.10;99.90;;;;;;5053629;28;20041;-83
2021/11/23 02:58:30;;;;;;;0.60;0.60;;;8.10;99.90;;;;;;5069941;28;20055;-83
2021/11/23 03:00:58;;;;;;;3.28;0.75;;;8.10;99.90;;;;;;5069497;28;20059;-83
2021/11/23 03:03:24;;;;;;;3.85;1.52;;;8.20;99.90;;;;;;5069725;28;20481;-83
2021/11/23 03:05:52;;;;;;;0.65;0.65;;;8.20;99.90;;;;;;5084619;28;20390;-83
2021/11/23 03:08:18;;;;;;;0.60;0.60;;;8.20;99.90;;;;;;5049966;28;20115;-83
2021/11/23 03:10:44;;;;;;;0.60;0.60;;;8.20;99.90;;;;;;5069490;28;20123;-83
2021/11/23 03:13:10;;;;;;;0.55;0.55;;;8.10;99.90;;;;;;5067604;28;20434;-83
2021/11/23 03:15:36;;;;;;;0.73;0.73;;;8.10;99.90;;;;;;5041959;28;20048;-83
2021/11/23 03:18:02;;;;;;;0.98;0.93;;;8.10;99.90;;;;;;5070957;28;20422;-83
2021/11/23 03:20:28;;;;;;;0.60;0.60;;;8.00;99.90;;;;;;5051287;28;20040;-82
2021/11/23 03:22:56;;;;;;;0.77;0.77;;;8.10;99.90;;;;;;5067161;28;20493;-83
2021/11/23 03:25:23;;;;;;;5.93;1.55;;;8.00;99.90;;;;;;5070874;28;20037;-82
2021/11/23 03:27:49;;;;;;;0.60;0.60;;;8.00;99.90;;;;;;5049416;28;20039;-82
2021/11/23 03:30:21;;;;;;;0.65;0.65;;;8.00;99.90;;;;;;5050053;28;20045;-83
2021/11/23 03:32:47;;;;;;;7.95;0.73;;;8.00;99.90;;;;;;5049408;28;20036;-83
2021/11/23 03:35:14;;;;;;;5.65;1.23;;;8.00;99.90;;;;;;5077479;28;20075;-83
2021/11/23 03:37:41;;;;;;;1.00;0.88;;;8.00;99.90;;;;;;5060422;28;20494;-83
2021/11/23 03:40:09;;;;;;;3.05;0.90;;;8.00;99.90;;;;;;5061351;28;20083;-83
2021/11/23 03:42:35;;;;;;;0.70;0.70;;;8.00;99.90;;;;;;5053617;28;20033;-83
2021/11/23 03:45:01;;;;;;;7.00;0.95;;;8.00;99.90;;;;;;5088002;28;20051;-83
2021/11/23 03:47:30;;;;;;;2.17;1.23;;;8.00;99.90;;;;;;5054252;28;20037;-83
2021/11/23 03:49:57;;;;;;;1.40;1.13;;;7.90;99.90;;;;;;5075433;28;20040;-83
2021/11/23 03:52:24;;;;;;;0.70;0.70;;;7.90;99.90;;;;;;5057179;28;20040;-83
2021/11/23 03:54:51;;;;;;;0.57;0.57;;;7.90;99.90;;;;;;5074570;28;20462;-81
2021/11/23 03:57:17;;;;;;;0.70;0.70;;;7.80;99.90;;;;;;5073557;28;20082;-81
2021/11/23 03:59:47;;;;;;;0.50;0.50;;;7.90;99.90;;;;;;5067951;28;20544;-82
2021/11/23 04:02:14;;;;;;;1.23;1.13;;;7.80;99.90;;;;;;5068178;28;20498;-82
2021/11/23 04:04:40;;;;;;;0.55;0.55;;;7.80;99.90;;;;;;5073486;28;20052;-82
2021/11/23 04:07:05;;;;;;;0.55;0.55;;;7.80;99.90;;;;;;5055202;28;20128;-82
2021/11/23 04:09:31;;;;;;;0.45;0.45;;;7.80;99.90;;;;;;5054753;28;20044;-82
2021/11/23 04:11:57;;;;;;;2.95;0.95;;;7.80;99.90;;;;;;5074779;28;20074;-82
2021/11/23 04:14:22;;;;;;;0.80;0.80;;;7.90;99.90;;;;;;5070382;28;20505;-82
2021/11/23 04:16:48;;;;;;;9.30;1.23;;;7.80;99.90;;;;;;5073389;28;20063;-81
2021/11/23 04:19:14;;;;;;;0.68;0.68;;;7.90;99.90;;;;;;5081911;28;20074;-81
2021/11/23 04:21:40;;;;;;;1.00;0.90;;;7.90;99.90;;;;;;5071591;28;20120;-82
2021/11/23 04:24:05;;;;;;;3.22;1.10;;;7.80;99.90;;;;;;5064323;28;20109;-82
2021/11/23 04:26:31;;;;;;;0.60;0.60;;;7.80;99.90;;;;;;5052507;28;20069;-82
2021/11/23 04:28:57;;;;;;;5.82;1.08;;;7.80;99.90;;;;;;5073738;28;20052;-82
2021/11/23 04:31:23;;;;;;;0.73;0.73;;;7.80;99.90;;;;;;5073962;28;20528;-82
2021/11/23 04:33:48;;;;;;;0.95;0.95;;;7.70;99.90;;;;;;5076495;28;20440;-81
2021/11/23 04:36:14;;;;;;;1.23;0.60;;;7.70;99.90;;;;;;5053241;28;20044;-82
2021/11/23 04:38:40;;;;;;;2.92;0.60;;;7.80;99.90;;;;;;5072501;28;20104;-82
2021/11/23 04:41:05;;;;;;;0.70;0.70;;;7.70;99.90;;;;;;5071222;28;20063;-81
2021/11/23 04:43:32;;;;;;;0.50;0.50;;;7.70;99.90;;;;;;5069353;28;20048;-81
2021/11/23 04:45:58;;;;;;;0.90;0.90;;;7.70;99.90;;;;;;5072394;28;20086;-82
2021/11/23 04:48:24;;;;;;;;;;;7.70;99.90;;;;;;5071896;28;20040;-83
2021/11/23 04:50:50;;;;;;;4.22;0.90;;;7.70;99.90;;;;;;5069981;28;19940;-83
2021/11/23 04:53:16;;;;;;;0.70;0.70;;;7.70;99.90;;;;;;5075306;28;20052;-81
2021/11/23 04:55:42;;;;;;;0.80;0.80;;;7.80;99.90;;;;;;5067909;28;20048;-81
2021/11/23 04:58:07;;;;;;;0.60;0.60;;;7.80;99.90;;;;;;5068282;28;20044;-83
2021/11/23 05:00:33;;;;;;;0.68;0.68;;;7.70;99.90;;;;;;5072327;28;20063;-82
2021/11/23 05:02:59;;;;;;;11.18;1.20;;;7.60;99.90;;;;;;5077239;28;20048;-82
2021/11/23 05:05:26;;;;;;;0.50;0.50;;;7.60;99.90;;;;;;5059590;28;20429;-82
2021/11/23 05:07:52;;;;;;;0.90;0.90;;;7.60;99.90;;;;;;5052114;28;20432;-81
2021/11/23 05:10:17;;;;;;;1.02;1.02;;;7.50;99.90;;;;;;5069700;28;20075;-82
2021/11/23 05:12:43;;;;;;;1.25;0.95;;;7.50;99.90;;;;;;5050450;28;20493;-82
2021/11/23 05:15:10;;;;;;;0.70;0.70;;;7.40;99.90;;;;;;5038841;28;20097;-81
2021/11/23 05:17:37;;;;;;;0.73;0.73;;;7.30;99.90;;;;;;5079840;28;20115;-82
2021/11/23 05:20:05;;;;;;;2.17;0.95;;;7.20;99.90;;;;;;5085926;28;20040;-82
2021/11/23 05:22:30;;;;;;;6.32;0.68;;;7.20;99.90;;;;;;5053046;28;20093;-81
2021/11/23 05:24:56;;;;;;;2.75;0.88;;;7.20;99.90;;;;;;5071829;28;20037;-81
2021/11/23 05:27:22;;;;;;;0.65;0.60;;;7.30;99.90;;;;;;5068467;28;20052;-81
2021/11/23 05:29:48;;;;;;;2.50;1.15;;;7.30;99.90;;;;;;5070483;28;20036;-82
2021/11/23 05:32:13;;;;;;;1.40;1.27;;;7.30;99.90;;;;;;5072475;28;20170;-81
2021/11/23 05:34:39;;;;;;;2.55;1.38;;;7.40;99.90;;;;;;5054427;28;20048;-80
2021/11/23 05:37:05;;;;;;;0.60;0.60;;;7.40;99.90;;;;;;5061189;28;20056;-81
2021/11/23 05:39:30;;;;;;;0.63;0.63;;;7.30;99.90;;;;;;5051457;28;20059;-81
2021/11/23 05:41:56;;;;;;;0.52;0.52;;;7.30;99.90;;;;;;5052568;28;20426;-82
2021/11/23 05:44:22;;;;;;;0.73;0.73;;;7.20;99.90;;;;;;5074134;28;20070;-82
2021/11/23 05:46:48;;;;;;;8.70;1.13;;;7.10;99.90;;;;;;5084888;28;20041;-82
2021/11/23 05:49:15;;;;;;;0.60;0.60;;;7.10;99.90;;;;;;5071614;28;20503;-82
2021/11/23 05:51:41;;;;;;;0.60;0.60;;;7.00;99.90;;;;;;5048656;28;20078;-82
2021/11/23 05:54:07;;;;;;;0.68;0.68;;;6.90;99.90;;;;;;5071301;28;20071;-82
2021/11/23 05:56:32;;;;;;;3.05;1.20;;;6.90;99.90;;;;;;5078316;28;20149;-82
2021/11/23 05:58:58;;;;;;;0.50;0.50;;;6.80;99.90;;;;;;5053843;28;20037;-82
2021/11/23 06:01:24;;;;;;;1.40;1.33;;;6.80;99.90;;;;;;5073888;28;20044;-81
2021/11/23 06:03:50;;;;;;;0.60;0.60;;;6.70;99.90;;;;;;5071180;28;20055;-82
2021/11/23 06:06:15;;;;;;;0.80;0.80;;;6.70;99.90;;;;;;5078881;28;20048;-82
2021/11/23 06:08:41;;;;;;;0.70;0.70;;;6.80;99.90;;;;;;5075878;28;20044;-82
2021/11/23 06:11:08;;;;;;;0.82;0.80;;;6.80;99.90;;;;;;5054089;28;20040;-83
2021/11/23 06:13:34;;;;;;;;;;;6.80;99.90;;;;;;5068943;28;20075;-81
2021/11/23 06:15:59;;;;;;;0.80;0.80;;;6.80;99.90;;;;;;5076311;28;20388;-81
2021/11/23 06:18:25;;;;;;;1.33;1.23;;;6.80;99.90;;;;;;5071978;28;20080;-82
2021/11/23 06:20:56;;;;;;;5.40;0.80;;;6.80;99.90;;;;;;5068112;28;20249;-83
2021/11/23 06:23:23;;;;;;;0.85;0.65;;;6.80;99.90;;;;;;5078458;28;20044;-82
2021/11/23 06:26:01;;;;;;;1.92;0.88;;;6.80;99.90;;;;;;5070173;28;20029;-82
2021/11/23 06:28:27;;;;;;;0.45;0.45;;;7.20;99.90;;;;;;5050751;28;20505;-79
2021/11/23 06:30:54;;;;;;;1.10;1.10;;;6.90;99.90;;;;;;5068943;28;20033;-78
2021/11/23 06:33:20;;;;;;;6.13;0.88;;;6.90;99.90;;;;;;5073401;28;20044;-79
2021/11/23 06:35:46;;;;;;;0.77;0.77;;;7.00;99.90;;;;;;5064004;28;20177;-81
2021/11/23 06:38:15;;;;;;;2.50;1.83;;;7.00;99.90;;;;;;5051225;28;20548;-80
2021/11/23 06:40:42;;;;;;;0.90;0.90;;;7.30;99.90;;;;;;5047386;28;20041;-79
2021/11/23 06:43:10;;;;;;;1.10;1.00;;;7.00;99.90;;;;;;5050824;28;20056;-80
2021/11/23 06:45:37;;;;;;;5.97;1.48;;;6.90;99.90;;;;;;5037099;28;20067;-79
2021/11/23 06:48:04;;;;;;;0.80;0.80;;;7.00;99.90;;;;;;5060891;28;20037;-79
2021/11/23 06:50:33;;;;;;;5.78;1.15;;;7.00;99.90;;;;;;5046352;28;20044;-79
2021/11/23 06:53:02;;;;;;;2.80;1.88;;;7.10;99.90;;;;;;5071294;28;20040;-81
2021/11/23 06:55:30;;;;;;;1.55;0.90;;;7.10;99.90;;;;;;5067143;28;20466;-78
2021/11/23 06:57:56;;;;;;;0.70;0.70;;;8.10;99.90;;;;;;5069600;28;20074;-78
2021/11/23 07:00:21;;;;;;;1.02;1.02;;;7.30;99.90;;;;;;5074558;28;20121;-77
2021/11/23 07:02:47;;;;;;;0.70;0.70;;;7.40;99.90;;;;;;5026671;28;20819;-80
2021/11/23 07:05:14;;;;;;;1.20;1.10;;;7.40;99.90;;;;;;5032169;28;20052;-76
2021/11/23 07:07:40;;;;;;;6.32;1.38;;;7.40;99.90;;;;;;5051902;28;20062;-76
2021/11/23 07:10:10;;;;;;;4.07;1.10;;;7.10;99.90;;;;;;5050092;28;20048;-79
2021/11/23 07:12:37;;;;;;;0.80;0.80;;;7.30;99.90;;;;;;5037614;28;20397;-80
2021/11/23 07:15:04;;;;;;;0.70;0.70;;;7.30;99.90;;;;;;5028679;28;20045;-78
2021/11/23 07:17:30;;;;;;;3.00;1.70;;;7.20;99.90;;;;;;5050027;28;20036;-80
2021/11/23 07:19:56;;;;;;;0.60;0.60;;;7.10;99.90;;;;;;5051205;28;20043;-78
2021/11/23 07:22:22;;;;;;;0.63;0.63;;;7.20;99.90;;;;;;5035246;28;20442;-78
2021/11/23 07:24:47;;;;;;;1.63;1.15;;;7.10;99.90;;;;;;5035284;28;20064;-79
2021/11/23 07:27:13;;;;;;;7.30;1.00;;;7.10;99.90;;;;;;5032688;28;20116;-79
2021/11/23 07:29:39;;;;;;;2.10;1.52;;;7.10;99.90;;;;;;5043034;28;20131;-79
2021/11/23 07:32:07;;;;;;;1.55;1.42;;;7.10;99.90;;;;;;5029955;28;20128;-81
2021/11/23 07:34:33;;;;;;;1.10;1.00;;;7.00;99.90;;;;;;5028711;28;20095;-80
2021/11/23 07:36:59;;;;;;;;;;;7.00;99.90;;;;;;5025450;28;20060;-79
2021/11/23 07:39:27;;;;;;;0.80;0.80;;;8.00;99.90;;;;;;5042012;28;19924;-81
2021/11/23 07:41:53;;;;;;;1.55;1.40;;;7.00;99.90;;;;;;5049472;28;20087;-79
2021/11/23 07:44:18;;;;;;;1.00;1.00;;;6.90;99.90;;;;;;5030023;28;20048;-79
2021/11/23 07:46:44;;;;;;;0.90;0.90;;;7.00;99.90;;;;;;5017641;28;20040;-80
2021/11/23 07:49:10;;;;;;;1.25;1.15;;;7.00;99.90;;;;;;5035355;28;20033;-78
2021/11/23 07:51:36;;;;;;;;;;;7.00;99.90;;;;;;5036058;28;20498;-79
2021/11/23 07:54:03;;;;;;;1.85;0.80;;;7.10;99.90;;;;;;5057028;28;19920;-80
2021/11/23 07:56:29;;;;;;;4.47;1.10;;;7.00;99.90;;;;;;5040689;28;20049;-81
2021/11/23 07:58:55;;;;;;;;;;;7.00;99.90;;;;;;5046457;28;20124;-80
2021/11/23 08:01:21;;;;;;;1.40;1.30;;;7.00;99.90;;;;;;5044111;28;20590;-82
2021/11/23 08:03:46;;;;;;;3.90;1.60;;;6.90;99.90;;;;;;5072852;28;20059;-79
2021/11/23 08:06:12;;;;;;;0.82;0.82;;;6.90;99.90;;;;;;5055745;28;20114;-82
2021/11/23 08:08:39;;;;;;;1.08;1.00;;;6.90;99.90;;;;;;5054152;28;20072;-78
2021/11/23 08:11:05;;;;;;;2.08;1.25;;;6.80;99.90;;;;;;5076492;28;20088;-81
2021/11/23 08:13:31;;;;;;;0.98;0.95;;;6.80;99.90;;;;;;5076740;28;20044;-79
2021/11/23 08:15:57;;;;;;;1.10;1.00;;;6.80;99.90;;;;;;5057949;28;20032;-80
2021/11/23 08:18:23;;;;;;;1.25;1.15;;;6.80;99.90;;;;;;5079921;28;20070;-78
2021/11/23 08:20:48;;;;;;;0.75;0.75;;;6.70;99.90;;;;;;5045865;28;20035;-77
2021/11/23 08:23:14;;;;;;;1.08;0.98;;;6.80;99.90;;;;;;5067786;28;20039;-78
2021/11/23 08:25:40;;;;;;;7.78;1.75;;;6.80;99.90;;;;;;5074714;28;20500;-79
2021/11/23 08:28:07;;;;;;;1.33;1.23;;;6.70;99.90;;;;;;5059644;28;20046;-80
2021/11/23 08:30:33;;;;;;;3.05;1.08;;;6.70;99.90;;;;;;5075908;28;20055;-83
2021/11/23 08:32:59;;;;;;;2.50;1.35;;;6.70;99.90;;;;;;5056518;28;20045;-82
2021/11/23 08:35:25;;;;;;;1.10;1.00;;;6.70;99.90;;;;;;5076411;28;20042;-83
2021/11/23 08:37:51;;;;;;;3.72;1.55;;;6.80;99.90;;;;;;5059367;28;20044;-83
2021/11/23 08:40:17;;;;;;;2.90;1.65;;;6.80;99.90;;;;;;5058854;28;20105;-82
2021/11/23 08:42:43;;;;;;;1.13;1.02;;;8.40;99.90;;;;;;5058184;28;20123;-82
2021/11/23 08:45:11;;;;;;;0.88;0.88;;;7.10;99.90;;;;;;5059175;28;20036;-81
2021/11/23 08:47:36;;;;;;;0.80;0.80;;;6.90;99.90;;;;;;5057285;28;20047;-83
2021/11/23 08:50:04;;;;;;;7.15;1.55;;;6.90;99.90;;;;;;5058437;28;20047;-81
2021/11/23 08:52:30;;;;;;;6.22;1.60;;;6.90;99.90;;;;;;5056384;28;20040;-82
2021/11/23 08:54:56;;;;;;;0.80;0.80;;;7.00;99.90;;;;;;5075018;28;20044;-81
2021/11/23 08:57:22;;;;;;;;;;;7.10;99.90;;;;;;5057374;28;20143;-81
2021/11/23 08:59:49;;;;;;;1.38;0.90;;;7.10;99.90;;;;;;5054442;28;20011;-81
2021/11/23 09:02:16;;;;;;;2.08;1.60;;;7.20;99.90;;;;;;5071883;28;20070;-83
2021/11/23 09:04:42;;;;;;;1.27;1.20;;;7.30;99.90;;;;;;5077279;28;20052;-83
2021/11/23 09:07:13;;;;;;;0.85;0.80;;;7.40;99.90;;;;;;5058472;28;20776;-82
2021/11/23 09:09:44;;;;;;;0.90;0.90;;;7.40;99.90;;;;;;5092336;28;20046;-80
2021/11/23 09:12:10;;;;;;;3.35;1.60;;;7.50;99.90;;;;;;5053654;28;20944;-82
2021/11/23 09:14:37;;;;;;;1.38;0.90;;;7.60;99.90;;;;;;5058356;28;20098;-82
2021/11/23 09:17:05;;;;;;;0.93;0.90;;;7.70;99.90;;;;;;5058486;28;20051;-82
2021/11/23 09:19:32;;;;;;;1.77;1.67;;;8.10;99.90;;;;;;5054636;28;20040;-84
2021/11/23 09:21:58;;;;;;;1.77;1.33;;;8.00;99.90;;;;;;5065097;28;20035;-82
2021/11/23 09:24:25;;;;;;;0.65;0.65;;;8.00;99.90;;;;;;5057026;28;20572;-83
2021/11/23 09:26:52;;;;;;;0.95;0.88;;;8.30;99.90;;;;;;5058050;28;20048;-83
2021/11/23 09:29:20;;;;;;;1.50;1.40;;;8.00;99.90;;;;;;5067437;28;20032;-81
2021/11/23 09:31:45;;;;;;;0.60;0.60;;;8.20;99.90;;;;;;5035492;28;20862;-80
2021/11/23 09:34:12;;;;;;;6.20;1.25;;;8.40;99.90;;;;;;5055238;28;20044;-81
2021/11/23 09:36:39;;;;;;;0.82;0.82;;;8.40;99.90;;;;;;5058828;28;20437;-81
2021/11/23 09:39:06;;;;;;;0.77;0.77;;;8.40;99.90;;;;;;5056082;28;20055;-82
2021/11/23 09:41:33;;;;;;;2.78;1.10;;;8.30;99.90;;;;;;5038437;28;20063;-82
2021/11/23 09:44:00;;;;;;;1.60;1.50;;;8.20;99.90;;;;;;5048730;28;20051;-81
2021/11/23 09:46:29;;;;;;;1.75;1.17;;;8.10;99.90;;;;;;5067182;28;20073;-82
2021/11/23 09:48:55;;;;;;;1.23;1.05;;;8.00;99.90;;;;;;5078002;28;20036;-82
2021/11/23 09:51:28;;;;;;;7.70;1.05;;;7.90;99.90;;;;;;5052587;28;20054;-82
2021/11/23 09:53:56;;;;;;;1.35;1.25;;;9.30;99.90;;;;;;5069296;28;20040;-83
2021/11/23 09:56:26;;;;;;;1.10;1.00;;;7.90;99.90;;;;;;5078092;28;20062;-82
2021/11/23 09:58:56;;;;;;;1.50;1.05;;;8.00;99.90;;;;;;5052442;28;20107;-84
2021/11/23 10:01:30;;;;;;;0.90;0.80;;;8.10;99.90;;;;;;5033654;28;20079;-81
2021/11/23 10:04:05;;;;;;;0.70;0.70;;;8.20;99.90;;;;;;5075896;28;20052;-82
2021/11/23 10:06:34;;;;;;;0.85;0.85;;;8.20;99.90;;;;;;5068907;28;20032;-82
2021/11/23 10:09:01;;;;;;;2.90;1.10;;;8.40;99.90;;;;;;5066760;28;20036;-82
2021/11/23 10:11:35;;;;;;;0.70;0.70;;;8.50;99.90;;;;;;5051930;28;20044;-83
2021/11/23 10:14:06;;;;;;;1.63;1.00;;;8.60;99.90;;;;;;5070388;28;20082;-83
2021/11/23 10:16:46;;;;;;;5.53;1.13;;;8.70;99.90;;;;;;5066226;28;20048;-85
2021/11/23 10:19:15;;;;;;;2.15;1.45;;;8.90;99.90;;;;;;5077642;28;20063;-83
2021/11/23 10:21:56;;;;;;;8.15;1.77;;;9.10;99.90;;;;;;5051523;28;20040;-84
2021/11/23 10:24:23;;;;;;;8.77;0.80;;;9.10;99.90;;;;;;5080969;28;20098;-83
2021/11/23 10:26:49;;;;;;;1.50;1.40;;;9.50;99.90;;;;;;5070524;28;20130;-83
2021/11/23 10:29:19;;;;;;;5.55;1.10;;;9.70;99.90;;;;;;5051096;28;20041;-83
2021/11/23 10:31:46;;;;;;;0.88;0.88;;;9.80;99.90;;;;;;5055562;28;20500;-86
2021/11/23 10:34:16;;;;;;;1.00;0.63;;;9.80;99.90;;;;;;5035867;28;20043;-83
2021/11/23 10:36:45;;;;;;;0.80;0.80;;;9.90;99.90;;;;;;5073698;28;20051;-83
2021/11/23 10:39:18;;;;;;;0.63;0.63;;;9.90;99.90;;;;;;5095938;28;20148;-82
2021/11/23 10:41:59;;;;;;;0.77;0.77;;;10.00;99.90;;;;;;5065337;28;20047;-84
2021/11/23 10:44:31;;;;;;;0.82;0.82;;;9.90;99.90;;;;;;5060462;28;20089;-81
2021/11/23 10:47:00;;;;;;;0.55;0.55;;;9.90;99.90;;;;;;5064380;28;20044;-82
2021/11/23 10:49:27;;;;;;;0.70;0.70;;;9.90;99.90;;;;;;5065560;28;20047;-82
2021/11/23 10:51:52;;;;;;;0.60;0.60;;;9.80;99.90;;;;;;5063876;28;20100;-87
2021/11/23 10:54:18;;;;;;;0.82;0.73;;;9.80;99.90;;;;;;5072082;28;20137;-85
2021/11/23 10:56:56;;;;;;;0.57;0.57;;;9.80;99.90;;;;;;5055927;28;20102;-82
2021/11/23 10:59:21;;;;;;;0.50;0.50;;;9.80;99.90;;;;;;5067672;28;20040;-82
2021/11/23 11:01:47;;;;;;;0.60;0.60;;;9.80;99.90;;;;;;5052815;28;20162;-81
2021/11/23 11:04:14;;;;;;;;;;;9.80;99.90;;;;;;5065288;28;20722;-81
2021/11/23 11:06:41;;;;;;;;;;;9.80;99.90;;;;;;5058939;28;19920;-81
2021/11/23 11:09:08;;;;;;;0.50;0.50;;;9.70;99.90;;;;;;5085131;28;19924;-83
2021/11/23 11:11:35;;;;;;;0.70;0.70;;;9.60;99.90;;;;;;5056304;28;20495;-87
2021/11/23 11:14:02;;;;;;;0.50;0.50;;;9.50;99.90;;;;;;5097545;28;20103;-82
2021/11/23 11:16:28;;;;;;;0.60;0.60;;;9.50;99.90;;;;;;5116801;28;20095;-82
2021/11/23 11:19:12;;;;;;;0.63;0.63;;;9.50;99.90;;;;;;5084323;28;20032;-89
2021/11/23 11:21:49;;;;;;;3.25;1.00;;;9.50;99.90;;;;;;5073908;28;20039;-87
2021/11/23 11:24:35;;;;;;;0.50;0.50;;;9.60;99.90;;;;;;5084381;28;20117;-82
2021/11/23 11:27:15;;;;;;;0.90;0.90;;;9.70;99.90;;;;;;5054862;28;20040;-87
2021/11/23 11:29:43;;;;;;;0.63;0.63;;;9.80;99.90;;;;;;5077332;28;20386;-83
2021/11/23 11:32:30;;;;;;;9.90;1.23;;;9.80;99.90;;;;;;5068269;28;20130;-84
2021/11/23 11:35:16;;;;;;;1.55;1.05;;;9.80;99.90;;;;;;5089239;28;20043;-84
2021/11/23 11:37:41;;;;;;;0.77;0.77;;;9.80;99.90;;;;;;5073566;28;20123;-86
2021/11/23 11:40:25;;;;;;;1.75;1.38;;;9.70;99.90;;;;;;5086454;28;20466;-82
2021/11/23 11:42:54;;;;;;;1.45;1.35;;;9.70;99.90;;;;;;5063404;28;20087;-82
2021/11/23 11:45:56;;;;;;;1.38;0.60;;;9.70;99.90;;;;;;5109329;28;20028;-85
2021/11/23 11:48:25;;;;;;;0.50;0.50;;;9.80;99.90;;;;;;5002976;28;20042;-84
2021/11/23 11:51:31;;;;;;;8.10;0.75;;;9.80;99.90;;;;;;5064434;28;20123;-84
2021/11/23 11:54:00;;;;;;;1.30;1.05;;;9.80;99.90;;;;;;5072622;28;20043;-85
2021/11/23 11:56:35;;;;;;;1.45;0.98;;;9.90;99.90;;;;;;5050237;28;20074;-86
2021/11/23 11:59:02;;;;;;;0.55;0.55;;;10.10;99.90;;;;;;5060378;28;20135;-85
2021/11/23 12:01:32;;;;;;;1.17;1.02;;;10.20;99.90;;;;;;5041260;28;20481;-84
2021/11/23 12:04:20;;;;;;;2.05;0.80;;;10.30;99.90;;;;;;5058699;28;20056;-84
2021/11/23 12:07:04;;;;;;;1.45;0.98;;;10.30;99.90;;;;;;5069091;28;20036;-84
2021/11/23 12:09:34;;;;;;;0.77;0.77;;;10.30;99.90;;;;;;5073256;28;20071;-84
2021/11/23 12:12:09;;;;;;;1.10;1.00;;;10.30;99.90;;;;;;5078042;28;20032;-85
2021/11/23 12:14:59;;;;;;;1.90;0.70;;;10.20;99.90;;;;;;5075547;28;20091;-84
2021/11/23 12:17:49;;;;;;;0.98;0.90;;;10.20;99.90;;;;;;5070305;28;20490;-80
2021/11/23 12:24:07;;;;;;;1.10;1.10;;;10.20;99.90;;;;;;5075980;28;20179;-83
2021/11/23 12:26:38;;;;;;;0.93;0.80;;;10.10;99.90;;;;;;5056660;28;20116;-85
2021/11/23 12:29:12;;;;;;;0.80;0.80;;;10.00;99.90;;;;;;5054840;28;20051;-82
2021/11/23 12:31:45;;;;;;;0.60;0.60;;;9.80;99.90;;;;;;5055766;28;20033;-81
2021/11/23 12:34:11;;;;;;;0.80;0.80;;;9.80;99.90;;;;;;5071159;28;20047;-82
2021/11/23 12:36:47;;;;;;;2.88;0.90;;;9.70;99.90;;;;;;5047689;28;20613;-83
2021/11/23 12:39:19;;;;;;;0.70;0.70;;;9.50;99.90;;;;;;5078482;28;20044;-83
2021/11/23 12:41:47;;;;;;;0.80;0.80;;;9.50;99.90;;;;;;5048327;28;20812;-81
2021/11/23 12:44:32;;;;;;;0.50;0.50;;;9.50;99.90;;;;;;5037715;28;20060;-80
2021/11/23 12:47:06;;;;;;;0.80;0.80;;;9.50;99.90;;;;;;5073625;28;20113;-82
2021/11/23 12:49:34;;;;;;;0.93;0.93;;;9.70;99.90;;;;;;5051545;28;20049;-86
2021/11/23 12:52:03;;;;;;;0.77;0.77;;;9.80;99.90;;;;;;5067983;28;20041;-82
2021/11/23 12:54:32;;;;;;;1.55;0.77;;;9.90;99.90;;;;;;5054790;28;20382;-80
2021/11/23 12:57:05;;;;;;;0.50;0.50;;;10.00;99.90;;;;;;5045965;28;20056;-83
2021/11/23 12:59:47;;;;;;;0.73;0.73;;;10.10;99.90;;;;;;5052312;28;20068;-82
2021/11/23 13:02:29;;;;;;;5.20;1.08;;;10.10;99.90;;;;;;5052379;28;20147;-80
2021/11/23 13:04:58;;;;;;;1.85;0.90;;;10.20;99.90;;;;;;5063047;28;20129;-81
2021/11/23 13:07:25;;;;;;;0.70;0.70;;;10.10;99.90;;;;;;5086466;28;20063;-83